Time;durP1;ratioP1;P1;durP2;ratioP2;P2;SDS_P1;SDS_P2;PMS_P1;PMS_P2;Temp;Humidity;BMP_temperature;BMP_pressure;BME280_temperature;BME280_humidity;BME280_pressure;Samples;Min_cycle;Max_cycle;Signal;HPM_P1;HPM_P2
2023/06/27 00:02:00;;;;;;;12.60;4.60;;;;;;;18.85;95.64;99934.27;109996;1276;22884;-61
2023/06/27 00:04:31;;;;;;;9.60;4.30;;;;;;;18.83;95.63;99924.33;109977;1265;22188;-61
2023/06/27 00:07:02;;;;;;;11.80;4.40;;;;;;;18.83;95.76;99924.48;109999;1279;22138;-61
2023/06/27 00:09:33;;;;;;;13.10;5.00;;;;;;;18.81;95.83;99929.92;109990;1280;22192;-61
2023/06/27 00:12:04;;;;;;;11.80;4.60;;;;;;;18.80;95.86;99923.61;109991;1279;23065;-61
2023/06/27 00:14:37;;;;;;;9.90;4.00;;;;;;;18.81;95.97;99923.45;109979;1266;22173;-60
2023/06/27 00:17:12;;;;;;;12.70;4.00;;;;;;;18.81;95.87;99921.75;109990;1273;22229;-61
2023/06/27 00:19:44;;;;;;;12.00;4.40;;;;;;;18.82;96.12;99919.38;109925;1270;22813;-61
2023/06/27 00:22:15;;;;;;;14.70;4.70;;;;;;;18.79;96.24;99921.98;110008;1265;22398;-61
2023/06/27 00:24:46;;;;;;;12.70;4.90;;;;;;;18.78;96.20;99926.13;109990;1280;22173;-61
2023/06/27 00:27:17;;;;;;;9.20;3.90;;;;;;;18.78;96.34;99932.34;109989;1271;22161;-61
2023/06/27 00:29:48;;;;;;;12.70;4.70;;;;;;;18.78;96.68;99935.90;109988;1269;22135;-61
2023/06/27 00:32:18;;;;;;;11.10;3.70;;;;;;;18.75;96.86;99935.90;109993;1273;22821;-61
2023/06/27 00:34:49;;;;;;;10.30;3.80;;;;;;;18.73;96.71;99933.42;110016;1273;22155;-61
2023/06/27 00:37:20;;;;;;;10.40;4.20;;;;;;;18.71;96.97;99937.62;110003;1265;22237;-61
2023/06/27 00:39:51;;;;;;;13.40;4.80;;;;;;;18.70;96.76;99939.08;109982;1280;22169;-61
2023/06/27 00:42:22;;;;;;;9.90;4.00;;;;;;;18.70;96.94;99941.80;109985;1273;22166;-61
2023/06/27 00:44:53;;;;;;;15.30;4.90;;;;;;;18.69;97.09;99944.96;110006;1270;22093;-61
2023/06/27 00:47:24;;;;;;;13.50;5.40;;;;;;;18.66;97.06;99945.95;109975;1267;22191;-61
2023/06/27 00:49:55;;;;;;;13.10;5.30;;;;;;;18.65;97.38;99948.69;109977;1269;22200;-60
2023/06/27 00:52:26;;;;;;;12.20;4.30;;;;;;;18.61;97.76;99953.08;110005;1265;22177;-61
2023/06/27 00:54:58;;;;;;;11.90;4.90;;;;;;;18.58;97.48;99953.33;110004;1280;23090;-61
2023/06/27 00:57:29;;;;;;;13.30;5.40;;;;;;;18.55;97.56;99952.58;109977;1273;22133;-61
2023/06/27 01:00:00;;;;;;;16.70;4.90;;;;;;;18.53;98.19;99960.04;109975;1270;22331;-61
2023/06/27 01:02:32;;;;;;;11.20;4.60;;;;;;;18.50;98.21;99958.36;110001;1270;22739;-61
2023/06/27 01:05:03;;;;;;;12.60;4.30;;;;;;;18.47;98.11;99960.58;109994;1271;22127;-61
2023/06/27 01:07:37;;;;;;;16.20;4.60;;;;;;;18.42;98.12;99956.89;110010;1274;22205;-61
2023/06/27 01:10:14;;;;;;;12.40;5.00;;;;;;;18.38;97.88;99956.98;110003;1273;22201;-63
2023/06/27 01:12:52;;;;;;;12.60;4.90;;;;;;;18.34;98.34;99966.61;109997;1280;22184;-63
2023/06/27 01:15:23;;;;;;;9.70;4.00;;;;;;;18.28;98.18;99967.64;109984;1270;22154;-62
2023/06/27 01:17:54;;;;;;;9.50;4.30;;;;;;;18.23;98.13;99970.88;109990;1269;22154;-62
2023/06/27 01:20:25;;;;;;;10.50;3.60;;;;;;;18.17;98.27;99972.50;110003;1273;23014;-62
2023/06/27 01:23:15;;;;;;;15.70;4.60;;;;;;;18.12;98.13;99969.91;109975;1273;22310;-62
2023/06/27 01:25:46;;;;;;;10.60;3.50;;;;;;;18.07;97.75;99971.69;110007;1273;22156;-62
2023/06/27 01:28:18;;;;;;;12.50;4.10;;;;;;;18.04;97.64;99977.91;109989;1274;22183;-62
2023/06/27 01:30:48;;;;;;;13.30;4.00;;;;;;;18.00;97.66;99978.89;109992;1280;22217;-62
2023/06/27 01:33:25;;;;;;;14.30;4.00;;;;;;;17.95;97.75;99974.23;110008;1269;22219;-62
2023/06/27 01:36:04;;;;;;;12.40;4.50;;;;;;;17.91;97.46;99976.05;109968;1274;22503;-62
2023/06/27 01:38:39;;;;;;;14.30;4.30;;;;;;;17.89;97.27;99978.29;109983;1267;22184;-62
2023/06/27 01:41:15;;;;;;;10.50;4.00;;;;;;;17.88;97.14;99979.89;109995;1266;22877;-63
2023/06/27 01:43:47;;;;;;;12.60;4.20;;;;;;;17.84;97.09;99979.02;109960;1274;23230;-62
2023/06/27 01:46:19;;;;;;;10.60;3.40;;;;;;;17.81;97.00;99982.41;110002;1265;22140;-61
2023/06/27 01:48:51;;;;;;;11.20;3.30;;;;;;;17.80;97.07;99986.42;109990;1273;22807;-62
2023/06/27 01:51:23;;;;;;;13.50;4.50;;;;;;;17.78;96.95;99989.13;109983;1269;22137;-62
2023/06/27 01:53:53;;;;;;;13.80;4.20;;;;;;;17.74;96.98;99988.00;109994;1273;22797;-62
2023/06/27 01:56:25;;;;;;;14.60;4.00;;;;;;;17.71;97.00;99988.96;109988;1273;22918;-62
2023/06/27 01:58:55;;;;;;;12.70;4.40;;;;;;;17.69;97.10;99988.42;109983;1274;22127;-62
2023/06/27 02:01:27;;;;;;;12.10;4.40;;;;;;;17.69;97.10;99991.41;110006;1272;22127;-63
2023/06/27 02:03:57;;;;;;;14.50;5.00;;;;;;;17.69;97.17;99989.10;110012;1270;22312;-62
2023/06/27 02:06:28;;;;;;;12.00;5.30;;;;;;;17.67;97.29;99996.72;109980;1274;22221;-62
2023/06/27 02:08:59;;;;;;;8.60;3.50;;;;;;;17.67;97.48;99998.21;109984;1270;22318;-62
2023/06/27 02:11:30;;;;;;;13.10;4.70;;;;;;;17.65;97.68;99999.45;110015;1270;22557;-62
2023/06/27 02:14:01;;;;;;;12.80;4.70;;;;;;;17.65;97.74;99999.52;109995;1269;22273;-63
2023/06/27 02:16:32;;;;;;;17.10;4.90;;;;;;;17.65;98.12;99995.45;110018;1265;22193;-62
2023/06/27 02:19:03;;;;;;;12.60;5.40;;;;;;;17.65;98.17;99990.89;109959;1273;22223;-62
2023/06/27 02:21:34;;;;;;;14.80;5.40;;;;;;;17.63;98.33;99987.48;110005;1280;22149;-63
2023/06/27 02:24:05;;;;;;;19.80;6.30;;;;;;;17.62;98.45;99985.91;109975;1273;22161;-62
2023/06/27 02:26:36;;;;;;;12.00;5.00;;;;;;;17.62;98.51;99988.31;110000;1274;22342;-62
2023/06/27 02:29:07;;;;;;;17.20;6.20;;;;;;;17.62;98.60;99987.90;110007;1270;22784;-63
2023/06/27 02:31:38;;;;;;;15.80;5.60;;;;;;;17.63;98.58;99990.36;110021;1267;22212;-63
2023/06/27 02:34:09;;;;;;;13.80;5.80;;;;;;;17.62;98.84;99988.89;110005;1269;22152;-62
2023/06/27 02:36:40;;;;;;;19.50;7.20;;;;;;;17.61;98.67;99993.05;109992;1280;22163;-63
2023/06/27 02:39:11;;;;;;;16.40;6.60;;;;;;;17.61;98.64;99994.98;109983;1273;22141;-63
2023/06/27 02:41:42;;;;;;;20.90;7.00;;;;;;;17.62;99.05;99995.05;109980;1273;22230;-63
2023/06/27 02:44:12;;;;;;;15.50;7.10;;;;;;;17.61;98.83;99999.27;109993;1268;22103;-63
2023/06/27 02:46:44;;;;;;;17.70;7.10;;;;;;;17.63;98.82;100002.10;109975;1270;22170;-62
2023/06/27 02:49:14;;;;;;;14.20;7.40;;;;;;;17.63;98.88;100002.46;109977;1273;22400;-62
2023/06/27 02:51:45;;;;;;;19.30;7.10;;;;;;;17.64;99.07;100007.85;109971;1276;22941;-62
2023/06/27 02:54:16;;;;;;;18.30;7.60;;;;;;;17.63;99.07;100009.34;109996;1270;22203;-63
2023/06/27 02:56:47;;;;;;;18.20;8.00;;;;;;;17.65;99.08;100011.78;109986;1273;22201;-63
2023/06/27 02:59:18;;;;;;;19.50;7.90;;;;;;;17.65;99.31;100015.89;109946;1273;22171;-63
2023/06/27 03:01:49;;;;;;;16.30;7.70;;;;;;;17.66;99.28;100022.75;109951;1274;23126;-63
2023/06/27 03:04:22;;;;;;;27.10;7.70;;;;;;;17.66;99.58;100019.46;109963;1273;22948;-63
2023/06/27 03:06:54;;;;;;;17.20;8.70;;;;;;;17.67;99.55;100020.65;110015;1280;22349;-63
2023/06/27 03:09:25;;;;;;;20.10;8.30;;;;;;;17.69;99.66;100015.79;110009;1273;22201;-63
2023/06/27 03:11:56;;;;;;;15.20;7.20;;;;;;;17.71;99.73;100018.23;109950;1273;23219;-63
2023/06/27 03:14:27;;;;;;;15.90;6.90;;;;;;;17.72;99.68;100022.01;109995;1274;22171;-62
2023/06/27 03:16:58;;;;;;;17.80;7.70;;;;;;;17.73;99.97;100027.02;109978;1273;23110;-62
2023/06/27 03:19:29;;;;;;;14.40;6.60;;;;;;;17.74;100.00;100021.88;109970;1265;22379;-62
2023/06/27 03:22:00;;;;;;;16.20;6.60;;;;;;;17.73;100.00;100021.33;109998;1274;22211;-63
2023/06/27 03:24:31;;;;;;;19.00;8.10;;;;;;;17.72;100.00;100021.76;109992;1267;22170;-62
2023/06/27 03:27:02;;;;;;;20.40;6.80;;;;;;;17.70;100.00;100030.20;110006;1273;22181;-62
2023/06/27 03:29:32;;;;;;;15.50;6.40;;;;;;;17.69;100.00;100034.13;109994;1276;22144;-62
2023/06/27 03:32:04;;;;;;;16.70;7.70;;;;;;;17.68;100.00;100031.81;109977;1274;22220;-62
2023/06/27 03:34:35;;;;;;;14.90;7.60;;;;;;;17.67;100.00;100028.17;109998;1273;22160;-62
2023/06/27 03:37:06;;;;;;;18.70;6.70;;;;;;;17.66;100.00;100027.79;109986;1273;22160;-62
2023/06/27 03:39:38;;;;;;;16.90;5.90;;;;;;;17.65;100.00;100030.11;110010;1280;23381;-62
2023/06/27 03:42:09;;;;;;;18.10;6.10;;;;;;;17.62;100.00;100036.66;109979;1268;22332;-62
2023/06/27 03:44:40;;;;;;;13.90;5.80;;;;;;;17.60;100.00;100037.20;109995;1271;22132;-62
2023/06/27 03:47:11;;;;;;;11.50;5.20;;;;;;;17.58;99.92;100042.61;110007;1273;22129;-62
2023/06/27 03:49:42;;;;;;;15.50;3.90;;;;;;;17.55;99.33;100042.14;109998;1267;22995;-62
2023/06/27 03:52:14;;;;;;;10.20;4.00;;;;;;;17.52;98.73;100043.58;109994;1273;22347;-62
2023/06/27 03:54:45;;;;;;;11.60;3.40;;;;;;;17.48;98.10;100046.42;110034;1280;22168;-62
2023/06/27 03:57:16;;;;;;;10.10;3.20;;;;;;;17.42;97.76;100046.02;109991;1267;22205;-62
2023/06/27 03:59:47;;;;;;;14.00;4.20;;;;;;;17.39;97.69;100048.16;109985;1273;22194;-62
2023/06/27 04:02:18;;;;;;;10.80;3.50;;;;;;;17.36;97.55;100045.38;109949;1276;23148;-63
2023/06/27 04:04:50;;;;;;;10.60;3.90;;;;;;;17.32;97.34;100044.50;109973;1273;22183;-62
2023/06/27 04:07:21;;;;;;;11.60;4.10;;;;;;;17.29;97.38;100048.17;109997;1273;22917;-63
2023/06/27 04:09:51;;;;;;;13.20;4.40;;;;;;;17.27;97.18;100050.18;109982;1280;22193;-62
2023/06/27 04:12:23;;;;;;;14.60;4.20;;;;;;;17.25;97.47;100052.46;109980;1274;22156;-63
2023/06/27 04:14:53;;;;;;;12.90;4.70;;;;;;;17.24;97.45;100051.45;109983;1267;22163;-62
2023/06/27 04:17:24;;;;;;;11.80;4.10;;;;;;;17.23;97.28;100053.22;110015;1267;22157;-62
2023/06/27 04:19:55;;;;;;;13.30;4.40;;;;;;;17.22;97.31;100056.09;109971;1270;23342;-61
2023/06/27 04:22:26;;;;;;;14.70;5.00;;;;;;;17.20;97.14;100052.48;109996;1273;22348;-61
2023/06/27 04:24:57;;;;;;;11.60;4.60;;;;;;;17.19;97.17;100058.23;109982;1280;22298;-62
2023/06/27 04:27:28;;;;;;;13.30;4.00;;;;;;;17.19;97.37;100061.02;109704;1273;22354;-64
2023/06/27 04:29:59;;;;;;;15.40;4.40;;;;;;;17.19;97.22;100057.11;109952;1273;22346;-64
2023/06/27 04:32:33;;;;;;;12.90;4.60;;;;;;;17.18;97.10;100063.62;109941;1273;22159;-62
2023/06/27 04:35:04;;;;;;;10.90;4.60;;;;;;;17.16;97.29;100071.60;109944;1267;22951;-62
2023/06/27 04:37:37;;;;;;;18.90;4.30;;;;;;;17.14;97.08;100074.14;109962;1274;22171;-63
2023/06/27 04:40:11;;;;;;;9.70;3.50;;;;;;;17.13;96.98;100076.83;109944;1273;22209;-63
2023/06/27 04:42:42;;;;;;;15.90;4.80;;;;;;;17.12;97.18;100078.10;109939;1273;22279;-60
2023/06/27 04:45:14;;;;;;;17.00;4.40;;;;;;;17.12;96.92;100079.64;109955;1273;23641;-64
2023/06/27 04:47:44;;;;;;;16.70;4.70;;;;;;;17.11;96.76;100080.61;107901;1273;96908;-61
2023/06/27 04:50:19;;;;;;;13.40;4.30;;;;;;;17.12;96.84;100083.23;105803;1274;24230;-61
2023/06/27 04:52:50;;;;;;;10.30;4.20;;;;;;;17.13;96.52;100088.66;105776;1265;22586;-64
2023/06/27 04:55:21;;;;;;;14.50;3.20;;;;;;;17.09;96.27;100085.88;105835;1265;24380;-59
2023/06/27 04:57:52;;;;;;;10.40;3.20;;;;;;;17.05;96.14;100088.85;105923;1273;23727;-61
2023/06/27 05:00:24;;;;;;;9.20;2.50;;;;;;;17.00;95.38;100090.38;105909;1274;25249;-61
2023/06/27 05:02:56;;;;;;;15.10;3.80;;;;;;;16.92;95.26;100096.89;109941;1268;22161;-61
2023/06/27 05:05:32;;;;;;;11.20;2.80;;;;;;;16.88;95.46;100102.62;109936;1274;22194;-62
2023/06/27 05:08:04;;;;;;;15.00;2.20;;;;;;;16.81;95.08;100100.23;109915;1276;23215;-61
2023/06/27 05:10:35;;;;;;;16.90;3.10;;;;;;;16.75;95.63;100103.83;109920;1265;23198;-61
2023/06/27 05:13:06;;;;;;;11.60;3.40;;;;;;;16.74;95.48;100103.67;109904;1273;22220;-63
2023/06/27 05:15:37;;;;;;;14.30;3.20;;;;;;;16.73;95.16;100107.84;109936;1272;22345;-62
2023/06/27 05:18:27;;;;;;;13.60;3.70;;;;;;;16.73;95.37;100111.05;109965;1274;22922;-61
2023/06/27 05:20:58;;;;;;;11.50;3.20;;;;;;;16.73;95.16;100113.11;109947;1274;22517;-62
2023/06/27 05:23:29;;;;;;;10.80;2.60;;;;;;;16.72;94.66;100110.09;109614;1276;22698;-60
2023/06/27 05:26:00;;;;;;;11.60;3.00;;;;;;;16.72;94.54;100106.56;106147;1268;42911;-62
2023/06/27 05:28:31;;;;;;;11.20;2.80;;;;;;;16.71;94.38;100103.35;109927;1265;22206;-63
2023/06/27 05:31:03;;;;;;;11.40;1.90;;;;;;;16.70;94.37;100106.52;109972;1274;22202;-62
2023/06/27 05:33:33;;;;;;;9.80;2.30;;;;;;;16.70;94.12;100110.94;109976;1274;22160;-60
2023/06/27 05:36:05;;;;;;;10.20;2.70;;;;;;;16.70;94.33;100116.77;109978;1269;22212;-59
2023/06/27 05:38:36;;;;;;;12.50;3.10;;;;;;;16.71;93.87;100121.13;109962;1271;22132;-59
2023/06/27 05:41:06;;;;;;;12.80;2.20;;;;;;;16.69;93.41;100124.54;109915;1270;22253;-60
2023/06/27 05:43:37;;;;;;;7.80;2.10;;;;;;;16.71;93.59;100129.80;109960;1269;22188;-60
2023/06/27 05:46:08;;;;;;;10.30;1.80;;;;;;;16.69;93.48;100130.16;109956;1273;22199;-60
2023/06/27 05:48:39;;;;;;;9.50;2.00;;;;;;;16.70;92.63;100134.52;109975;1280;22171;-60
2023/06/27 05:51:11;;;;;;;10.90;2.40;;;;;;;16.70;92.28;100142.14;109968;1269;22366;-60
2023/06/27 05:53:41;;;;;;;11.80;1.90;;;;;;;16.71;92.57;100132.77;109971;1276;22138;-60
2023/06/27 05:56:13;;;;;;;8.60;2.00;;;;;;;16.75;91.85;100138.23;110001;1274;22208;-60
2023/06/27 05:58:44;;;;;;;9.00;1.60;;;;;;;16.79;91.93;100131.63;109868;1274;22246;-60
2023/06/27 06:01:15;;;;;;;9.30;2.00;;;;;;;16.85;92.50;100133.63;109870;1273;23503;-58
2023/06/27 06:03:46;;;;;;;10.00;1.80;;;;;;;16.95;92.62;100139.65;109478;1280;22413;-59
2023/06/27 06:06:17;;;;;;;11.80;2.30;;;;;;;17.02;91.40;100146.77;109740;1269;22832;-60
2023/06/27 06:08:48;;;;;;;11.30;1.70;;;;;;;17.03;91.22;100144.23;109912;1273;22122;-60
2023/06/27 06:11:19;;;;;;;10.70;1.80;;;;;;;17.05;90.49;100148.08;109925;1270;22921;-60
2023/06/27 06:13:50;;;;;;;11.20;2.00;;;;;;;17.05;90.34;100150.83;109944;1270;22187;-60
2023/06/27 06:16:21;;;;;;;8.30;1.60;;;;;;;17.03;89.82;100155.17;109933;1274;22975;-64
2023/06/27 06:18:51;;;;;;;8.60;1.80;;;;;;;17.00;89.82;100158.17;110031;1274;22212;-60
2023/06/27 06:21:22;;;;;;;7.00;1.90;;;;;;;17.02;89.32;100158.30;110005;1274;22305;-60
2023/06/27 06:23:53;;;;;;;11.30;1.80;;;;;;;17.05;89.71;100163.35;109971;1277;22144;-59
2023/06/27 06:26:24;;;;;;;12.90;1.80;;;;;;;17.09;88.41;100163.48;109943;1274;22393;-60
2023/06/27 06:28:55;;;;;;;8.90;1.70;;;;;;;17.06;88.17;100161.35;110017;1272;22150;-60
2023/06/27 06:31:26;;;;;;;9.20;1.60;;;;;;;17.05;88.05;100158.98;110007;1273;22996;-60
2023/06/27 06:33:57;;;;;;;8.00;1.70;;;;;;;17.07;88.50;100160.97;109979;1267;22120;-60
2023/06/27 06:36:28;;;;;;;8.20;1.50;;;;;;;17.18;88.86;100159.59;109999;1273;22672;-59
2023/06/27 06:38:59;;;;;;;12.10;1.30;;;;;;;17.32;88.04;100161.58;110026;1273;22331;-60
2023/06/27 06:41:30;;;;;;;9.10;1.10;;;;;;;17.38;85.71;100166.90;109936;1271;22372;-60
2023/06/27 06:44:01;;;;;;;7.30;1.10;;;;;;;17.44;85.46;100157.95;109937;1270;22327;-60
2023/06/27 06:46:32;;;;;;;13.30;1.40;;;;;;;17.53;85.77;100161.17;109963;1275;22169;-60
2023/06/27 06:49:03;;;;;;;8.00;1.20;;;;;;;17.64;85.60;100164.86;109978;1280;22334;-60
2023/06/27 06:51:33;;;;;;;9.40;1.30;;;;;;;17.72;85.04;100173.50;109940;1274;22155;-60
2023/06/27 06:54:05;;;;;;;7.80;1.20;;;;;;;17.70;82.90;100175.05;109970;1273;22171;-60
2023/06/27 06:56:35;;;;;;;7.70;1.20;;;;;;;17.67;83.25;100170.95;109981;1275;22187;-60
2023/06/27 06:59:07;;;;;;;7.20;0.90;;;;;;;17.69;81.40;100169.58;109993;1267;22914;-60
2023/06/27 07:01:38;;;;;;;9.00;0.90;;;;;;;17.68;80.36;100172.36;109997;1273;22988;-60
2023/06/27 07:04:09;;;;;;;10.60;1.20;;;;;;;17.69;80.34;100163.92;110014;1272;22970;-59
2023/06/27 07:06:39;;;;;;;15.30;1.00;;;;;;;17.76;80.60;100161.17;110014;1275;22219;-59
2023/06/27 07:09:10;;;;;;;10.60;1.20;;;;;;;17.77;79.67;100166.44;109996;1274;22211;-60
2023/06/27 07:11:41;;;;;;;7.40;0.90;;;;;;;17.78;79.11;100167.16;110020;1273;22622;-60
2023/06/27 07:14:12;;;;;;;6.60;1.00;;;;;;;17.77;79.25;100168.91;109969;1273;22325;-60
2023/06/27 07:16:43;;;;;;;7.00;1.10;;;;;;;17.78;78.91;100164.08;109992;1274;22203;-61
2023/06/27 07:19:16;;;;;;;7.60;0.90;;;;;;;17.80;79.25;100163.86;109959;1273;22361;-60
2023/06/27 07:21:47;;;;;;;5.90;1.20;;;;;;;17.86;79.24;100166.56;109959;1280;22214;-60
2023/06/27 07:24:18;;;;;;;13.50;1.60;;;;;;;17.93;79.09;100167.61;109943;1269;22205;-60
2023/06/27 07:26:51;;;;;;;8.80;0.80;;;;;;;17.97;77.65;100171.61;109907;1273;22149;-60
2023/06/27 07:29:21;;;;;;;7.60;0.90;;;;;;;18.01;75.37;100165.70;109980;1273;22228;-60
2023/06/27 07:31:52;;;;;;;8.80;1.00;;;;;;;18.03;74.80;100168.35;109930;1273;23075;-60
2023/06/27 07:34:23;;;;;;;5.60;1.10;;;;;;;18.07;75.48;100170.10;109895;1273;22319;-60
2023/06/27 07:36:54;;;;;;;11.30;1.00;;;;;;;18.13;76.65;100165.71;109957;1271;22178;-60
2023/06/27 07:39:25;;;;;;;6.30;1.00;;;;;;;18.18;76.58;100162.58;109974;1275;22172;-60
2023/06/27 07:41:56;;;;;;;8.90;1.10;;;;;;;18.25;76.55;100161.70;109929;1266;22441;-60
2023/06/27 07:44:27;;;;;;;6.90;1.00;;;;;;;18.36;75.78;100160.46;109984;1271;22215;-61
2023/06/27 07:46:58;;;;;;;9.90;0.90;;;;;;;18.46;74.74;100160.58;110015;1274;22324;-60
2023/06/27 07:49:30;;;;;;;7.20;0.90;;;;;;;18.56;72.68;100158.33;110008;1273;22138;-60
2023/06/27 07:52:01;;;;;;;11.10;1.10;;;;;;;18.60;71.86;100163.41;110000;1277;23000;-60
2023/06/27 07:54:33;;;;;;;13.90;1.40;;;;;;;18.62;71.46;100163.16;109981;1280;22155;-60
2023/06/27 07:57:04;;;;;;;8.40;1.00;;;;;;;18.66;70.52;100163.14;109957;1274;22135;-60
2023/06/27 07:59:35;;;;;;;7.70;0.90;;;;;;;18.71;71.08;100164.98;109977;1276;23193;-60
2023/06/27 08:02:06;;;;;;;5.60;0.90;;;;;;;18.82;71.69;100167.48;109929;1274;22205;-60
2023/06/27 08:04:37;;;;;;;8.60;0.80;;;;;;;18.92;70.53;100177.19;109953;1277;22182;-60
2023/06/27 08:07:08;;;;;;;4.00;0.80;;;;;;;18.95;69.82;100177.04;109941;1274;22248;-60
2023/06/27 08:09:39;;;;;;;4.90;1.00;;;;;;;19.00;69.73;100173.05;109979;1273;22160;-60
2023/06/27 08:12:12;;;;;;;4.80;0.60;;;;;;;19.02;69.19;100170.75;109935;1275;22323;-60
2023/06/27 08:14:45;;;;;;;7.80;0.70;;;;;;;19.07;69.54;100168.25;109968;1271;22166;-60
2023/06/27 08:17:16;;;;;;;4.30;0.70;;;;;;;19.14;67.98;100180.91;109947;1274;22352;-60
2023/06/27 08:19:47;;;;;;;8.50;0.90;;;;;;;19.09;67.57;100177.48;109957;1271;22189;-60
2023/06/27 08:22:18;;;;;;;6.70;0.70;;;;;;;19.06;66.85;100170.98;109933;1279;23109;-60
2023/06/27 08:24:48;;;;;;;7.40;0.70;;;;;;;19.09;67.70;100166.27;109963;1274;22152;-60
2023/06/27 08:27:20;;;;;;;6.40;0.70;;;;;;;19.16;67.08;100165.07;109907;1276;22364;-60
2023/06/27 08:29:51;;;;;;;5.60;0.70;;;;;;;19.20;66.53;100167.63;109927;1268;22219;-61
2023/06/27 08:32:22;;;;;;;4.90;0.70;;;;;;;19.28;66.17;100169.02;109898;1273;22283;-61
2023/06/27 08:34:53;;;;;;;4.30;0.70;;;;;;;19.36;65.69;100169.07;109946;1274;22890;-60
2023/06/27 08:37:24;;;;;;;5.70;0.90;;;;;;;19.41;64.60;100166.93;109944;1265;22163;-60
2023/06/27 08:39:55;;;;;;;7.80;0.80;;;;;;;19.45;64.18;100164.63;107779;1280;22526;-59
2023/06/27 08:42:27;;;;;;;6.00;0.80;;;;;;;19.46;64.48;100164.86;105824;1274;22925;-59
2023/06/27 08:44:59;;;;;;;5.20;0.90;;;;;;;19.52;65.22;100166.88;109968;1269;22405;-60
2023/06/27 08:47:33;;;;;;;8.20;1.00;;;;;;;19.58;65.25;100158.77;109973;1270;22203;-60
2023/06/27 08:50:08;;;;;;;5.00;0.70;;;;;;;19.63;63.31;100163.88;109971;1269;22715;-60
2023/06/27 08:52:44;;;;;;;5.90;0.70;;;;;;;19.63;62.91;100170.52;109900;1277;23050;-60
2023/06/27 08:55:27;;;;;;;7.90;0.80;;;;;;;19.66;62.55;100168.19;109949;1273;22406;-61
2023/06/27 08:58:02;;;;;;;9.30;0.60;;;;;;;19.70;62.80;100162.09;109938;1266;22378;-61
2023/06/27 09:00:34;;;;;;;8.00;0.70;;;;;;;19.81;63.31;100163.58;109962;1277;22141;-61
2023/06/27 09:03:07;;;;;;;6.00;0.80;;;;;;;19.86;61.62;100164.83;109924;1265;22423;-60
2023/06/27 09:05:39;;;;;;;3.70;0.60;;;;;;;19.80;61.40;100162.36;109941;1274;22187;-63
2023/06/27 09:08:11;;;;;;;2.60;0.60;;;;;;;19.76;60.62;100161.58;109932;1275;23289;-62
2023/06/27 09:10:45;;;;;;;6.80;0.70;;;;;;;19.77;60.71;100166.70;109929;1269;22143;-62
2023/06/27 09:13:17;;;;;;;3.20;0.70;;;;;;;19.82;60.16;100164.91;109938;1273;22369;-62
2023/06/27 09:15:48;;;;;;;6.40;0.60;;;;;;;19.88;59.10;100164.69;109955;1280;22175;-62
2023/06/27 09:18:19;;;;;;;5.10;0.80;;;;;;;19.97;60.21;100166.82;109943;1277;22335;-62
2023/06/27 09:20:50;;;;;;;5.60;0.70;;;;;;;20.12;59.90;100168.98;109970;1273;22347;-62
2023/06/27 09:23:21;;;;;;;8.70;1.00;;;;;;;20.21;59.56;100167.31;109899;1273;22227;-63
2023/06/27 09:26:09;;;;;;;5.80;0.90;;;;;;;20.28;59.47;100164.33;109947;1271;22223;-62
2023/06/27 09:28:51;;;;;;;4.60;0.80;;;;;;;20.37;58.39;100164.30;109860;1267;22740;-62
2023/06/27 09:31:23;;;;;;;11.20;0.80;;;;;;;20.37;55.16;100153.05;109926;1269;22446;-62
2023/06/27 09:34:06;;;;;;;4.20;0.60;;;;;;;20.30;56.50;100148.16;109915;1277;22237;-63
2023/06/27 09:36:38;;;;;;;6.50;0.70;;;;;;;20.35;57.15;100145.36;109933;1277;22208;-62
2023/06/27 09:39:11;;;;;;;6.10;0.60;;;;;;;20.41;56.22;100147.82;109924;1274;22938;-60
2023/06/27 09:41:48;;;;;;;4.60;0.80;;;;;;;20.38;56.19;100143.59;109944;1270;22961;-63
2023/06/27 09:44:21;;;;;;;6.20;0.70;;;;;;;20.31;56.53;100146.08;109922;1273;23266;-62
2023/06/27 09:46:53;;;;;;;4.50;0.80;;;;;;;20.21;56.72;100150.26;109960;1269;22208;-63
2023/06/27 09:49:29;;;;;;;3.60;0.70;;;;;;;20.14;57.15;100147.80;109951;1273;23002;-62
2023/06/27 09:52:04;;;;;;;6.30;0.80;;;;;;;20.09;56.93;100147.90;109903;1280;22346;-63
2023/06/27 09:54:41;;;;;;;5.80;0.70;;;;;;;20.05;57.22;100150.76;109967;1280;22937;-62
2023/06/27 09:57:21;;;;;;;5.30;0.80;;;;;;;19.99;57.23;100156.45;109924;1276;22215;-63
2023/06/27 09:59:59;;;;;;;7.40;0.90;;;;;;;19.90;56.98;100163.92;107808;1273;25398;-63
2023/06/27 10:02:32;;;;;;;5.10;0.80;;;;;;;19.76;56.90;100161.05;105781;1270;24342;-61
2023/06/27 10:05:03;;;;;;;4.60;0.80;;;;;;;19.62;57.11;100164.92;109939;1268;22380;-62
2023/06/27 10:07:35;;;;;;;8.10;0.70;;;;;;;19.53;57.53;100166.50;109963;1266;22318;-62
2023/06/27 10:10:07;;;;;;;3.60;0.70;;;;;;;19.58;58.24;100166.75;109939;1265;22623;-63
2023/06/27 10:12:39;;;;;;;3.40;0.80;;;;;;;19.73;58.66;100155.98;109934;1279;22178;-63
2023/06/27 10:15:11;;;;;;;4.10;0.60;;;;;;;19.89;57.82;100152.29;109971;1277;22141;-62
2023/06/27 10:17:42;;;;;;;9.40;0.90;;;;;;;19.88;56.06;100153.73;109958;1274;22326;-63
2023/06/27 10:20:14;;;;;;;2.30;0.50;;;;;;;19.77;56.38;100161.09;109951;1270;23308;-62
2023/06/27 10:22:46;;;;;;;7.20;0.70;;;;;;;19.63;56.50;100171.65;109878;1274;22252;-63
2023/06/27 10:25:20;;;;;;;2.90;0.60;;;;;;;19.49;56.32;100168.56;109955;1273;22402;-63
2023/06/27 10:27:51;;;;;;;3.70;0.60;;;;;;;19.26;56.31;100166.39;109898;1280;22308;-62
2023/06/27 10:30:29;;;;;;;2.90;0.40;;;;;;;19.02;56.84;100157.16;109887;1274;22225;-62
2023/06/27 10:33:20;;;;;;;3.70;0.50;;;;;;;18.88;57.37;100150.88;109907;1271;22305;-69
2023/06/27 10:35:57;;;;;;;3.10;0.40;;;;;;;18.78;57.47;100142.82;109933;1277;23416;-63
2023/06/27 10:38:51;;;;;;;4.70;0.50;;;;;;;18.73;57.44;100139.02;109935;1268;22193;-62
2023/06/27 10:41:33;;;;;;;5.30;0.60;;;;;;;18.78;57.97;100135.51;109905;1276;23084;-63
2023/06/27 10:44:12;;;;;;;5.20;0.70;;;;;;;18.88;58.64;100133.29;109914;1274;22307;-62
2023/06/27 10:46:44;;;;;;;8.80;1.00;;;;;;;18.99;59.10;100132.79;109940;1274;22173;-63
2023/06/27 10:49:15;;;;;;;5.40;0.70;;;;;;;19.15;59.53;100132.40;109906;1273;22408;-62
2023/06/27 10:51:48;;;;;;;5.90;0.80;;;;;;;19.33;59.72;100132.30;109938;1280;22271;-62
2023/06/27 10:54:27;;;;;;;5.70;0.80;;;;;;;19.53;60.30;100128.53;109843;1273;22376;-63
2023/06/27 10:57:02;;;;;;;9.10;0.90;;;;;;;19.73;61.03;100122.64;105836;1258;5405249;-62
2023/06/27 10:59:34;;;;;;;3.20;0.60;;;;;;;19.93;60.71;100122.68;109923;1274;22153;-62
2023/06/27 11:02:08;;;;;;;3.00;0.60;;;;;;;19.97;58.79;100124.05;109908;1277;22330;-64
2023/06/27 11:04:43;;;;;;;7.00;0.50;;;;;;;19.89;58.99;100118.21;109924;1269;22193;-63
2023/06/27 11:07:18;;;;;;;6.00;0.70;;;;;;;19.77;58.94;100122.20;109955;1266;23900;-62
2023/06/27 11:09:55;;;;;;;6.40;0.60;;;;;;;19.67;58.38;100123.79;109971;1280;22191;-63
2023/06/27 11:12:33;;;;;;;4.80;0.60;;;;;;;19.60;57.83;100123.92;109890;1277;22220;-62
2023/06/27 11:15:05;;;;;;;2.60;0.60;;;;;;;19.57;58.02;100123.54;109879;1275;22217;-62
2023/06/27 11:17:39;;;;;;;3.00;0.40;;;;;;;19.56;57.86;100121.86;109946;1277;22141;-62
2023/06/27 11:20:12;;;;;;;3.30;0.40;;;;;;;19.62;57.86;100119.83;109939;1269;22313;-62
2023/06/27 11:22:43;;;;;;;5.70;0.70;;;;;;;19.67;57.64;100122.29;109911;1273;22287;-62
2023/06/27 11:25:16;;;;;;;5.80;0.70;;;;;;;19.71;57.83;100121.52;109930;1273;22263;-63
2023/06/27 11:27:47;;;;;;;4.40;0.70;;;;;;;19.77;58.67;100115.86;109943;1280;22220;-62
2023/06/27 11:30:23;;;;;;;7.90;0.60;;;;;;;19.93;58.61;100114.81;109911;1266;22220;-63
2023/06/27 11:32:58;;;;;;;3.60;0.60;;;;;;;20.04;58.26;100109.98;109927;1273;22873;-62
2023/06/27 11:35:29;;;;;;;7.50;0.70;;;;;;;20.20;59.25;100115.85;109946;1273;22259;-61
2023/06/27 11:38:00;;;;;;;3.10;0.60;;;;;;;20.35;59.36;100106.55;109929;1270;23649;-63